Mateo — YP2618 — position and weather

sailwx.info

Track history (hours):
 
Tides and Currents Weather Stations Pressure Air Temp Water Temp Dewpoint Dewpoint Depression Visibility Wind Speed Wind Dir Waves Ship Positions

Mateo

Last reported at 2017-Oct-18 07:57 UTC. Time now 2017-Oct-18 17:05 UTC.
Position N 44°18' E 028°03'.

Length 67 m; draft 1 m.

Type: Cargo ship. MMSI: 264162618.

Date/timePositionNaut miles runAvg speedWind from/ knotsBaromVisibWave heightAir tempDewpointWater temp
2017-Oct-18 07:57N 44°18' E 028°03'1 3.0
2017-Oct-18 07:31N 44°17' E 028°04'2 4.4
2017-Oct-18 07:01N 44°16' E 028°07'2 4.7
2017-Oct-18 06:31N 44°16' E 028°10'2 4.6
2017-Oct-18 06:00N 44°15' E 028°13'2 4.5
2017-Oct-18 05:30N 44°15' E 028°16'2 4.7
2017-Oct-18 05:00N 44°15' E 028°20'2 4.3
2017-Oct-18 04:31N 44°14' E 028°22'2 4.3
2017-Oct-18 04:00N 44°12' E 028°23'1 2.5
2017-Oct-18 03:30N 44°11' E 028°24'0 0.0
2017-Oct-18 03:01N 44°11' E 028°24'0 0.0
2017-Oct-18 02:30N 44°11' E 028°24'0 0.0
2017-Oct-18 02:01N 44°11' E 028°24'0 0.0
2017-Oct-18 01:30N 44°11' E 028°24'0 0.0
2017-Oct-18 01:01N 44°11' E 028°24'0 0.0
2017-Oct-18 00:31N 44°11' E 028°24'0 0.0
2017-Oct-18 00:01N 44°11' E 028°24'0 0.0
2017-Oct-17 23:31N 44°11' E 028°24'0 0.0
2017-Oct-17 23:01N 44°11' E 028°24'0 0.0
2017-Oct-17 22:30N 44°11' E 028°24'0 0.0
2017-Oct-17 22:01N 44°11' E 028°24'0 0.0
2017-Oct-17 21:30N 44°11' E 028°24'0 0.0
2017-Oct-17 21:01N 44°11' E 028°24'0 0.0
2017-Oct-17 20:30N 44°11' E 028°24'0 0.0
2017-Oct-17 20:01N 44°11' E 028°24'0 0.0
2017-Oct-17 19:31N 44°11' E 028°24'0 0.0
2017-Oct-17 19:01N 44°11' E 028°24'0 0.0
2017-Oct-17 18:31N 44°11' E 028°24'0 0.0
2017-Oct-17 18:01N 44°11' E 028°24'0 0.0
2017-Oct-17 17:30N 44°11' E 028°24'0 0.2
2017-Oct-17 17:01N 44°11' E 028°24'2 3.1
2017-Oct-17 16:19N 44°09' E 028°26'5 4.3
2017-Oct-17 15:13N 44°06' E 028°30'1 4.9
2017-Oct-17 15:00N 44°06' E 028°32'2 4.7
2017-Oct-17 14:31N 44°06' E 028°35'2 3.1
2017-Oct-17 14:01N 44°06' E 028°37'0 0.7
2017-Oct-17 13:31N 44°06' E 028°38'1 2.6
2017-Oct-17 13:01N 44°07' E 028°39'0 0.0
2017-Oct-17 12:30N 44°07' E 028°39'0 0.6
2017-Oct-17 11:58N 44°07' E 028°39'0 0.0
2017-Oct-17 11:28N 44°07' E 028°39'0 0.0
2017-Oct-17 10:58N 44°07' E 028°39'0 0.0
2017-Oct-17 10:28N 44°07' E 028°39'0 0.0
2017-Oct-17 09:58N 44°07' E 028°39'0 0.0
2017-Oct-17 09:28N 44°07' E 028°39'0 0.0
2017-Oct-17 08:58N 44°07' E 028°39'0 0.0
2017-Oct-17 08:28N 44°07' E 028°39'0 0.0
2017-Oct-17 07:58N 44°07' E 028°39'0 0.0
2017-Oct-17 07:28N 44°07' E 028°39'0 0.0
2017-Oct-17 06:58N 44°07' E 028°39'0 0.0
2017-Oct-17 06:28N 44°07' E 028°39'0 0.0
2017-Oct-17 05:58N 44°07' E 028°39'0 0.0
2017-Oct-17 05:28N 44°07' E 028°39'0 0.0
2017-Oct-17 04:58N 44°07' E 028°39'0 0.0
2017-Oct-17 04:28N 44°07' E 028°39'0 0.0
2017-Oct-17 03:58N 44°07' E 028°39'0 0.0
2017-Oct-17 03:16N 44°07' E 028°39'0 0.0
2017-Oct-17 02:58N 44°07' E 028°39'0 0.0
2017-Oct-17 02:28N 44°07' E 028°39'0 0.0
2017-Oct-17 01:55N 44°07' E 028°39'0 0.0
2017-Oct-17 01:25N 44°07' E 028°39'0 0.0
2017-Oct-17 00:58N 44°07' E 028°39'0 0.0
2017-Oct-17 00:28N 44°07' E 028°39'0 0.0
2017-Oct-16 23:58N 44°07' E 028°39'0 0.0
2017-Oct-16 23:25N 44°07' E 028°39'0 0.0
2017-Oct-16 22:58N 44°07' E 028°39'0 0.0
2017-Oct-16 22:28N 44°07' E 028°39'0 0.0
2017-Oct-16 21:58N 44°07' E 028°39'0 0.0
2017-Oct-16 21:28N 44°07' E 028°39'0 0.0
2017-Oct-16 20:58N 44°07' E 028°39'0 0.0
2017-Oct-16 20:28N 44°07' E 028°39'0 0.0
2017-Oct-16 19:58N 44°07' E 028°39'0 0.0
2017-Oct-16 19:22N 44°07' E 028°39'0 0.0
2017-Oct-16 18:58N 44°07' E 028°39'0 0.0
2017-Oct-16 18:28N 44°07' E 028°39'0 0.0
2017-Oct-16 17:58N 44°07' E 028°39'0 0.0
2017-Oct-16 17:28N 44°07' E 028°39'0 0.0
2017-Oct-16 16:58N 44°07' E 028°39'0 0.0
2017-Oct-16 16:28N 44°07' E 028°39'0 0.0
2017-Oct-16 15:58N 44°07' E 028°39'0 0.0
2017-Oct-16 15:28N 44°07' E 028°39'0 0.0
2017-Oct-16 14:58N 44°07' E 028°39'0 0.0
2017-Oct-16 14:28N 44°07' E 028°39'0 0.0
2017-Oct-16 13:28N 44°07' E 028°39'0 0.0
2017-Oct-16 12:58N 44°07' E 028°39'0 0.0
2017-Oct-16 12:25N 44°07' E 028°39'0 0.0
2017-Oct-16 11:58N 44°07' E 028°39'0 0.0
2017-Oct-16 11:28N 44°07' E 028°39'0 0.0
2017-Oct-16 10:58N 44°07' E 028°39'0 0.0
2017-Oct-16 10:28N 44°07' E 028°39'0 0.0
2017-Oct-16 09:58N 44°07' E 028°39'0 0.0
2017-Oct-16 09:28N 44°07' E 028°39'0 0.0
2017-Oct-16 08:58N 44°07' E 028°39'0 0.0
2017-Oct-16 08:28N 44°07' E 028°39'0 0.0
2017-Oct-16 07:58N 44°07' E 028°39'0 0.0
2017-Oct-16 07:28N 44°07' E 028°39'0 0.0
2017-Oct-16 06:58N 44°07' E 028°39'0 0.0
2017-Oct-16 06:28N 44°07' E 028°39'0 0.0
2017-Oct-16 05:58N 44°07' E 028°39'0 0.0
2017-Oct-16 05:28N 44°07' E 028°39'0 0.0
2017-Oct-16 04:58N 44°07' E 028°39'0 0.0
2017-Oct-16 04:25N 44°07' E 028°39'0 0.0
2017-Oct-16 03:58N 44°07' E 028°39'0 0.0
2017-Oct-16 03:28N 44°07' E 028°39'0 0.0
2017-Oct-16 02:58N 44°07' E 028°39'0 0.0
2017-Oct-16 02:28N 44°07' E 028°39'0 0.0
2017-Oct-16 01:58N 44°07' E 028°39'0 0.0
2017-Oct-16 01:28N 44°07' E 028°39'0 0.0
2017-Oct-16 00:58N 44°07' E 028°39'0 0.0
2017-Oct-16 00:28N 44°07' E 028°39'0 0.0
2017-Oct-15 23:58N 44°07' E 028°39'0 0.0
2017-Oct-15 23:28N 44°07' E 028°39'0 0.0
2017-Oct-15 22:52N 44°07' E 028°39'0 0.0
2017-Oct-15 22:28N 44°07' E 028°39'0 0.0
2017-Oct-15 21:58N 44°07' E 028°39'0 0.0
2017-Oct-15 21:28N 44°07' E 028°39'0 0.0
2017-Oct-15 20:58N 44°07' E 028°39'0 0.0
2017-Oct-15 20:28N 44°07' E 028°39'0 0.0
2017-Oct-15 19:58N 44°07' E 028°39'0 0.0
2017-Oct-15 19:28N 44°07' E 028°39'0 0.0
2017-Oct-15 18:58N 44°07' E 028°39'0 0.0
2017-Oct-15 18:28N 44°07' E 028°39'0 0.0
2017-Oct-15 17:58N 44°07' E 028°39'0 0.0
2017-Oct-15 17:28N 44°07' E 028°39'0 0.0
2017-Oct-15 16:58N 44°07' E 028°39'0 0.0
2017-Oct-15 16:28N 44°07' E 028°39'0 0.0
2017-Oct-15 15:58N 44°07' E 028°39'0 0.0
2017-Oct-15 15:28N 44°07' E 028°39'0 0.0
2017-Oct-15 14:58N 44°07' E 028°39'0 0.0
2017-Oct-15 13:58N 44°07' E 028°39'0 0.0
2017-Oct-15 13:28N 44°07' E 028°39'0 0.0
2017-Oct-15 12:58N 44°07' E 028°39'0 0.0
2017-Oct-15 12:28N 44°07' E 028°39'0 0.0
2017-Oct-15 12:01N 44°07' E 028°39'0 0.0
2017-Oct-15 11:30N 44°07' E 028°39'0 0.0
2017-Oct-15 11:00N 44°07' E 028°39'0 0.0
2017-Oct-15 10:30N 44°07' E 028°39'0 0.0
2017-Oct-15 10:00N 44°07' E 028°39'0 0.4
2017-Oct-15 09:30N 44°07' E 028°39'2 4.6
2017-Oct-15 09:00N 44°09' E 028°40'1 2.3
2017-Oct-15 08:31N 44°09' E 028°39'0 0.0
2017-Oct-15 08:00N 44°09' E 028°39'0 0.0
2017-Oct-15 07:30N 44°09' E 028°39'0 0.0
2017-Oct-15 07:00N 44°09' E 028°39'0 0.0
2017-Oct-15 06:31N 44°09' E 028°39'0 0.0
2017-Oct-15 06:00N 44°09' E 028°39'0 0.0
2017-Oct-15 05:30N 44°09' E 028°39'0 0.0
2017-Oct-15 05:00N 44°09' E 028°39'0 0.0
2017-Oct-15 04:30N 44°09' E 028°39'0 0.0
2017-Oct-15 04:00N 44°09' E 028°39'0 0.0
2017-Oct-15 03:31N 44°09' E 028°39'0 0.0
2017-Oct-15 03:00N 44°09' E 028°39'0 0.0
2017-Oct-15 02:31N 44°09' E 028°39'0 0.0
2017-Oct-15 02:00N 44°09' E 028°39'0 0.0
2017-Oct-15 01:30N 44°09' E 028°39'0 0.0
2017-Oct-15 01:00N 44°09' E 028°39'0 0.0
2017-Oct-15 00:30N 44°09' E 028°39'0 0.0
2017-Oct-15 00:00N 44°09' E 028°39'0 0.0
2017-Oct-14 23:30N 44°09' E 028°39'0 0.0
2017-Oct-14 23:00N 44°09' E 028°39'1 1.3
2017-Oct-14 22:31N 44°09' E 028°40'1 2.1
2017-Oct-14 22:00N 44°08' E 028°39'1 2.7
2017-Oct-14 21:30N 44°07' E 028°39'0 0.1
2017-Oct-14 21:00N 44°07' E 028°39'0 0.0
2017-Oct-14 20:30N 44°07' E 028°39'0 0.0
2017-Oct-14 20:01N 44°07' E 028°39'0 0.0
2017-Oct-14 19:30N 44°07' E 028°39'0 0.0
2017-Oct-14 19:00N 44°07' E 028°39'0 0.0
2017-Oct-14 18:30N 44°07' E 028°39'0 0.0
2017-Oct-14 18:00N 44°07' E 028°39'0 0.0
2017-Oct-14 17:30N 44°07' E 028°39'0 0.0
2017-Oct-14 17:00N 44°07' E 028°39'0 0.0
2017-Oct-14 16:31N 44°07' E 028°39'0 0.0
2017-Oct-14 16:00N 44°07' E 028°39'0 0.0
2017-Oct-14 15:30N 44°07' E 028°39'0 0.0
2017-Oct-14 15:00N 44°07' E 028°39'0 0.0
2017-Oct-14 14:30N 44°07' E 028°39'0 0.0
2017-Oct-14 14:00N 44°07' E 028°39'0 0.0
2017-Oct-14 13:31N 44°07' E 028°39'0 0.0
2017-Oct-14 13:00N 44°07' E 028°39'0 0.0
2017-Oct-14 12:30N 44°07' E 028°39'0 0.0
2017-Oct-14 12:00N 44°07' E 028°39'0 0.0
2017-Oct-14 11:30N 44°07' E 028°39'0 0.0
2017-Oct-14 11:00N 44°07' E 028°39'0 0.0
2017-Oct-14 10:30N 44°07' E 028°39'0 0.0
2017-Oct-14 10:00N 44°07' E 028°39'0 0.0
2017-Oct-14 09:30N 44°07' E 028°39'0 0.0
2017-Oct-14 09:01N 44°07' E 028°39'0 0.0
2017-Oct-14 08:30N 44°07' E 028°39'0 0.0
2017-Oct-14 08:01N 44°07' E 028°39'0 0.0
2017-Oct-14 07:31N 44°07' E 028°39'0 0.0
2017-Oct-14 07:01N 44°07' E 028°39'0 0.0
2017-Oct-14 06:31N 44°07' E 028°39'0 0.0
2017-Oct-14 06:00N 44°07' E 028°39'0 0.0
2017-Oct-14 05:30N 44°07' E 028°39'0 0.0
2017-Oct-14 05:00N 44°07' E 028°39'0 0.0
2017-Oct-14 04:30N 44°07' E 028°39'0 0.0
2017-Oct-14 04:00N 44°07' E 028°39'0 0.0
2017-Oct-14 03:31N 44°07' E 028°39'0 0.0
2017-Oct-14 03:00N 44°07' E 028°39'0 0.0
2017-Oct-14 02:30N 44°07' E 028°39'0 0.0
2017-Oct-14 02:00N 44°07' E 028°39'0 0.0
2017-Oct-14 01:30N 44°07' E 028°39'0 0.0
2017-Oct-14 01:01N 44°07' E 028°39'0 0.0
2017-Oct-14 00:30N 44°07' E 028°39'0 0.0
2017-Oct-14 00:00N 44°07' E 028°39'0 0.0
2017-Oct-13 23:30N 44°07' E 028°39'0 0.0
2017-Oct-13 23:00N 44°07' E 028°39'0 0.0
2017-Oct-13 22:30N 44°07' E 028°39'0 0.0
2017-Oct-13 22:00N 44°07' E 028°39'0 0.0
2017-Oct-13 21:30N 44°07' E 028°39'0 0.0
2017-Oct-13 21:01N 44°07' E 028°39'0 0.0
2017-Oct-13 20:30N 44°07' E 028°39'0 0.0
2017-Oct-13 20:01N 44°07' E 028°39'0 0.0
2017-Oct-13 19:30N 44°07' E 028°39'0 0.0
2017-Oct-13 19:01N 44°07' E 028°39'0 0.0
2017-Oct-13 18:30N 44°07' E 028°39'0 0.0
2017-Oct-13 18:00N 44°07' E 028°39'0 0.0
2017-Oct-13 17:30N 44°07' E 028°39'0 0.0
2017-Oct-13 17:00N 44°07' E 028°39'0 0.0
2017-Oct-13 16:30N 44°07' E 028°39'0 0.0
2017-Oct-13 16:01N 44°07' E 028°39'0 0.0
2017-Oct-13 15:30N 44°07' E 028°39'0 0.0
2017-Oct-13 15:00N 44°07' E 028°39'0 0.0
2017-Oct-13 14:30N 44°07' E 028°39'0 0.0
2017-Oct-13 14:00N 44°07' E 028°39'0 0.0
2017-Oct-13 13:30N 44°07' E 028°39'0 0.0
2017-Oct-13 13:00N 44°07' E 028°39'0 0.0
2017-Oct-13 12:31N 44°07' E 028°39'0 0.0
2017-Oct-13 12:00N 44°07' E 028°39'0 0.0
2017-Oct-13 11:30N 44°07' E 028°39'0 0.0
2017-Oct-13 11:00N 44°07' E 028°39'0 0.0
2017-Oct-13 10:30N 44°07' E 028°39'0 0.0
2017-Oct-13 10:00N 44°07' E 028°39'0 0.0
2017-Oct-13 09:31N 44°07' E 028°39'0 0.0
2017-Oct-13 09:00N 44°07' E 028°39'0 0.0
2017-Oct-13 08:31N 44°07' E 028°39'0 0.0
2017-Oct-13 08:00N 44°07' E 028°39'0 0.1
2017-Oct-13 07:31N 44°07' E 028°39'0 0.0
2017-Oct-13 07:00N 44°07' E 028°39'0 0.0
2017-Oct-13 06:30N 44°07' E 028°39'0 0.0
2017-Oct-13 06:00N 44°07' E 028°39'0 0.0
2017-Oct-13 05:30N 44°07' E 028°39'0 0.0
2017-Oct-13 05:00N 44°07' E 028°39'0 0.0
2017-Oct-13 04:30N 44°07' E 028°39'0 0.0
2017-Oct-13 04:00N 44°07' E 028°39'0 0.0
2017-Oct-13 03:30N 44°07' E 028°39'0 0.0
2017-Oct-13 03:00N 44°07' E 028°39'0 0.0
2017-Oct-13 02:30N 44°07' E 028°39'0 0.0
2017-Oct-13 02:01N 44°07' E 028°39'0 0.0
2017-Oct-13 01:30N 44°07' E 028°39'0 0.0
2017-Oct-13 01:00N 44°07' E 028°39'0 0.0
2017-Oct-13 00:30N 44°07' E 028°39'0 0.0
2017-Oct-13 00:00N 44°07' E 028°39'0 0.0
2017-Oct-12 23:30N 44°07' E 028°39'0 0.0
2017-Oct-12 23:00N 44°07' E 028°39'0 0.0
2017-Oct-12 22:30N 44°07' E 028°39'0 0.0
2017-Oct-12 22:00N 44°07' E 028°39'0 0.0
2017-Oct-12 21:30N 44°07' E 028°39'0 0.0
2017-Oct-12 21:00N 44°07' E 028°39'0 0.0
2017-Oct-12 20:31N 44°07' E 028°39'0 0.0
2017-Oct-12 20:01N 44°07' E 028°39'0 0.0
2017-Oct-12 19:30N 44°07' E 028°39'0 0.0
2017-Oct-12 19:01N 44°07' E 028°39'0 0.0
2017-Oct-12 18:31N 44°07' E 028°39'0 0.0
2017-Oct-12 18:00N 44°07' E 028°39'0 0.0
2017-Oct-12 17:30N 44°07' E 028°39'0 0.0
2017-Oct-12 17:00N 44°07' E 028°39'0 0.0
2017-Oct-12 16:31N 44°07' E 028°39'0 0.0
2017-Oct-12 16:00N 44°07' E 028°39'0 0.0
2017-Oct-12 15:31N 44°07' E 028°39'0 0.0
2017-Oct-12 15:00N 44°07' E 028°39'0 0.0
2017-Oct-12 14:31N 44°07' E 028°39'0 0.0
2017-Oct-12 14:00N 44°07' E 028°39'0 0.0
2017-Oct-12 13:30N 44°07' E 028°39'0 0.0
2017-Oct-12 13:00N 44°07' E 028°39'0 0.0
2017-Oct-12 12:30N 44°07' E 028°39'0 0.0
2017-Oct-12 12:00N 44°07' E 028°39'0 0.0
2017-Oct-12 11:31N 44°07' E 028°39'0 0.0
2017-Oct-12 11:00N 44°07' E 028°39'0 0.0
2017-Oct-12 10:31N 44°07' E 028°39'0 0.0
2017-Oct-12 10:00N 44°07' E 028°39'0 0.0
2017-Oct-12 09:30N 44°07' E 028°39'0 0.0
2017-Oct-12 09:00N 44°07' E 028°39'0 0.0
2017-Oct-12 08:30N 44°07' E 028°39'0 0.0
2017-Oct-12 08:00N 44°07' E 028°39'0 0.0
2017-Oct-12 07:31N 44°07' E 028°39'0 0.0
2017-Oct-12 07:00N 44°07' E 028°39'0 0.0
2017-Oct-12 06:30N 44°07' E 028°39'0 0.0
2017-Oct-12 06:01N 44°07' E 028°39'0 0.0
2017-Oct-12 05:30N 44°07' E 028°39'0 0.0
2017-Oct-12 05:00N 44°07' E 028°39'0 0.0
2017-Oct-12 04:30N 44°07' E 028°39'0 0.0
2017-Oct-12 04:00N 44°07' E 028°39'0 0.0
2017-Oct-12 03:30N 44°07' E 028°39'0 0.0
2017-Oct-12 03:00N 44°07' E 028°39'0 0.0
2017-Oct-12 02:30N 44°07' E 028°39'0 0.0
2017-Oct-12 02:01N 44°07' E 028°39'0 0.0
2017-Oct-12 01:30N 44°07' E 028°39'0 0.0
2017-Oct-12 01:00N 44°07' E 028°39'0 0.0
2017-Oct-12 00:30N 44°07' E 028°39'0 0.0
2017-Oct-12 00:01N 44°07' E 028°39'0 0.0
2017-Oct-11 23:30N 44°07' E 028°39'0 0.0
2017-Oct-11 23:01N 44°07' E 028°39'0 0.0
2017-Oct-11 22:30N 44°07' E 028°39'0 0.0
2017-Oct-11 22:01N 44°07' E 028°39'0 0.0
2017-Oct-11 21:31N 44°07' E 028°39'0 0.0
2017-Oct-11 21:00N 44°07' E 028°39'0 0.0
2017-Oct-11 20:30N 44°07' E 028°39'0 0.0
2017-Oct-11 20:01N 44°07' E 028°39'0 0.0
2017-Oct-11 19:30N 44°07' E 028°39'0 0.0
2017-Oct-11 19:00N 44°07' E 028°39'0 0.0
2017-Oct-11 18:30N 44°07' E 028°39'0 0.0
2017-Oct-11 18:00N 44°07' E 028°39'0 0.0
2017-Oct-11 17:31N 44°07' E 028°39'0 0.0
2017-Oct-11 17:00N 44°07' E 028°39'0 0.0
2017-Oct-11 00:00N 44°07' E 028°39'0 0.0
2017-Oct-10 23:30N 44°07' E 028°39'0 0.0
2017-Oct-10 23:00N 44°07' E 028°39'0 0.0
2017-Oct-10 22:31N 44°07' E 028°39'0 0.0
2017-Oct-10 22:01N 44°07' E 028°39'0 0.0
2017-Oct-10 21:30N 44°07' E 028°39'0 0.0
2017-Oct-10 21:01N 44°07' E 028°39'0 0.0
2017-Oct-10 20:30N 44°07' E 028°39'0 0.0
2017-Oct-10 20:01N 44°07' E 028°39'0 0.0
2017-Oct-10 19:30N 44°07' E 028°39'0 0.0
2017-Oct-10 19:00N 44°07' E 028°39'0 0.0
2017-Oct-10 18:30N 44°07' E 028°39'0 0.0
2017-Oct-10 18:00N 44°07' E 028°39'0 0.0
2017-Oct-10 17:31N 44°07' E 028°39'0 0.0
2017-Oct-10 17:00N 44°07' E 028°39'0 0.0
2017-Oct-10 16:31N 44°07' E 028°39'0 0.0
2017-Oct-10 16:01N 44°07' E 028°39'0 0.0
2017-Oct-10 15:31N 44°07' E 028°39'0 0.0
2017-Oct-10 15:01N 44°07' E 028°39'0 0.0
2017-Oct-10 14:00N 44°07' E 028°39'0 0.0
2017-Oct-10 13:31N 44°07' E 028°39'0 0.0
2017-Oct-10 13:01N 44°07' E 028°39'0 0.0
2017-Oct-10 12:30N 44°07' E 028°39'0 0.0
2017-Oct-10 12:00N 44°07' E 028°39'0 0.0
2017-Oct-10 11:30N 44°07' E 028°39'0 0.0
2017-Oct-10 11:00N 44°07' E 028°39'0 0.0
2017-Oct-10 10:30N 44°07' E 028°39'0 0.0
2017-Oct-10 10:00N 44°07' E 028°39'0 0.0
2017-Oct-10 09:30N 44°07' E 028°39'0 0.0
2017-Oct-10 09:00N 44°07' E 028°39'0 0.0
2017-Oct-10 08:31N 44°07' E 028°39'0 0.0
2017-Oct-10 08:00N 44°07' E 028°39'0 0.0
2017-Oct-10 07:30N 44°07' E 028°39'0 0.0
2017-Oct-10 07:00N 44°07' E 028°39'0 0.0
2017-Oct-10 06:31N 44°07' E 028°39'0 0.0
2017-Oct-10 06:00N 44°07' E 028°39'0 0.0
2017-Oct-10 05:30N 44°07' E 028°39'0 0.0
2017-Oct-10 05:01N 44°07' E 028°39'0 0.0
2017-Oct-10 04:30N 44°07' E 028°39'0 0.0
2017-Oct-10 04:00N 44°07' E 028°39'0 0.0
2017-Oct-10 03:30N 44°07' E 028°39'0 0.0
2017-Oct-10 03:01N 44°07' E 028°39'0 0.0
2017-Oct-10 02:30N 44°07' E 028°39'0 0.0
2017-Oct-10 02:00N 44°07' E 028°39'0 0.0
2017-Oct-10 01:30N 44°07' E 028°39'0 0.0
2017-Oct-10 01:00N 44°07' E 028°39'0 0.0
2017-Oct-10 00:30N 44°07' E 028°39'0 0.0
2017-Oct-10 00:01N 44°07' E 028°39'0 0.0
2017-Oct-09 23:31N 44°07' E 028°39'0 0.0
2017-Oct-09 23:01N 44°07' E 028°39'0 0.0
2017-Oct-09 22:30N 44°07' E 028°39'0 0.0
2017-Oct-09 22:01N 44°07' E 028°39'0 0.0
2017-Oct-09 21:30N 44°07' E 028°39'0 0.0
2017-Oct-09 21:00N 44°07' E 028°39'0 0.0
2017-Oct-09 20:30N 44°07' E 028°39'0 0.0
2017-Oct-09 20:00N 44°07' E 028°39'0 0.0
2017-Oct-09 19:30N 44°07' E 028°39'0 0.0
2017-Oct-09 19:00N 44°07' E 028°39'0 0.0
2017-Oct-09 18:30N 44°07' E 028°39'0 0.0
2017-Oct-09 18:01N 44°07' E 028°39'0 0.0
2017-Oct-09 17:30N 44°07' E 028°39'0 0.0
2017-Oct-09 17:00N 44°07' E 028°39'0 0.0
2017-Oct-09 16:31N 44°07' E 028°39'0 0.0
2017-Oct-09 16:01N 44°07' E 028°39'0 0.0
2017-Oct-09 15:30N 44°07' E 028°39'0 0.0
2017-Oct-09 15:00N 44°07' E 028°39'0 0.0
2017-Oct-09 14:31N 44°07' E 028°39'0 0.0
2017-Oct-09 14:01N 44°07' E 028°39'0 0.0
2017-Oct-09 13:31N 44°07' E 028°39'0 0.0
2017-Oct-09 13:00N 44°07' E 028°39'0 0.0
2017-Oct-09 12:31N 44°07' E 028°39'0 0.0
2017-Oct-09 12:00N 44°07' E 028°39'0 0.0
2017-Oct-09 11:30N 44°07' E 028°39'0 0.0
2017-Oct-09 11:00N 44°07' E 028°39'0 0.0
2017-Oct-09 10:31N 44°07' E 028°39'0 0.0
2017-Oct-09 10:00N 44°07' E 028°39'0 0.0
2017-Oct-09 09:30N 44°07' E 028°39'0 0.0
2017-Oct-09 09:01N 44°07' E 028°39'0 0.0
2017-Oct-09 08:30N 44°07' E 028°39'0 0.0
2017-Oct-09 08:00N 44°07' E 028°39'0 0.0
2017-Oct-09 07:30N 44°07' E 028°39'0 0.0
2017-Oct-09 07:00N 44°07' E 028°39'0 0.0
2017-Oct-09 06:31N 44°07' E 028°39'0 0.0
2017-Oct-09 06:01N 44°07' E 028°39'0 0.0
2017-Oct-09 05:31N 44°07' E 028°39'0 0.0
2017-Oct-09 05:01N 44°07' E 028°39'0 0.0
2017-Oct-09 04:30N 44°07' E 028°39'0 0.0
2017-Oct-09 04:00N 44°07' E 028°39'0 0.0
2017-Oct-09 03:31N 44°07' E 028°39'0 0.0
2017-Oct-09 03:01N 44°07' E 028°39'0 0.0
2017-Oct-09 02:30N 44°07' E 028°39'0 0.0
2017-Oct-09 02:00N 44°07' E 028°39'0 0.0
2017-Oct-09 01:31N 44°07' E 028°39'0 0.0
2017-Oct-09 01:00N 44°07' E 028°39'0 0.0
2017-Oct-09 00:30N 44°07' E 028°39'0 0.0
2017-Oct-09 00:00N 44°07' E 028°39'0 0.0
2017-Oct-08 23:30N 44°07' E 028°39'0 0.0
2017-Oct-08 23:00N 44°07' E 028°39'0 0.0
2017-Oct-08 22:30N 44°07' E 028°39'0 0.0
2017-Oct-08 22:01N 44°07' E 028°39'0 0.0
2017-Oct-08 21:30N 44°07' E 028°39'0 0.0
2017-Oct-08 21:00N 44°07' E 028°39'0 0.0
2017-Oct-08 20:31N 44°07' E 028°39'0 0.0
2017-Oct-08 20:00N 44°07' E 028°39'0 0.0
2017-Oct-08 19:31N 44°07' E 028°39'0 0.0
2017-Oct-08 19:00N 44°07' E 028°39'0 0.0
2017-Oct-08 18:30N 44°07' E 028°39'0 0.0
2017-Oct-08 18:01N 44°07' E 028°39'0 0.0
2017-Oct-08 17:30N 44°07' E 028°39'0 0.0
2017-Oct-08 17:00N 44°07' E 028°39'0 0.0
2017-Oct-08 16:30N 44°07' E 028°39'0 0.0
2017-Oct-08 16:01N 44°07' E 028°39'0 0.0
2017-Oct-08 15:31N 44°07' E 028°39'0 0.0
2017-Oct-08 15:00N 44°07' E 028°39'0 0.0
2017-Oct-08 14:31N 44°07' E 028°39'0 0.0
2017-Oct-08 14:00N 44°07' E 028°39'0 0.0
2017-Oct-08 13:30N 44°07' E 028°39'0 0.0
2017-Oct-08 13:00N 44°07' E 028°39'0 0.0
2017-Oct-08 12:30N 44°07' E 028°39'0 0.0
2017-Oct-08 12:00N 44°07' E 028°39'0 0.0
2017-Oct-08 11:30N 44°07' E 028°39'0 0.0
2017-Oct-08 11:00N 44°07' E 028°39'0 0.0
2017-Oct-08 10:30N 44°07' E 028°39'0 0.0
2017-Oct-08 10:01N 44°07' E 028°39'0 0.0
2017-Oct-08 09:30N 44°07' E 028°39'0 0.0
2017-Oct-08 09:01N 44°07' E 028°39'0 0.0
2017-Oct-08 08:31N 44°07' E 028°39'0 0.0
2017-Oct-08 08:00N 44°07' E 028°39'  
Track history (hours):
 
Tides and Currents Weather Stations Pressure Air Temp Water Temp Dewpoint Dewpoint Depression Visibility Wind Speed Wind Dir Waves Ship Positions

Mateo

Last reported at 2017-Oct-18 07:57 UTC. Time now 2017-Oct-18 17:05 UTC.
Position N 44°18' E 028°03'.

Length 67 m; draft 1 m.

Type: Cargo ship. MMSI: 264162618.

Date/timePositionNaut miles runAvg speedWind from/ knotsBaromVisibWave heightAir tempDewpointWater temp
2017-Oct-18 07:57N 44°18' E 028°03'1 3.0
2017-Oct-18 07:31N 44°17' E 028°04'2 4.4
2017-Oct-18 07:01N 44°16' E 028°07'2 4.7
2017-Oct-18 06:31N 44°16' E 028°10'2 4.6
2017-Oct-18 06:00N 44°15' E 028°13'2 4.5
2017-Oct-18 05:30N 44°15' E 028°16'2 4.7
2017-Oct-18 05:00N 44°15' E 028°20'2 4.3
2017-Oct-18 04:31N 44°14' E 028°22'2 4.3
2017-Oct-18 04:00N 44°12' E 028°23'1 2.5
2017-Oct-18 03:30N 44°11' E 028°24'0 0.0
2017-Oct-18 03:01N 44°11' E 028°24'0 0.0
2017-Oct-18 02:30N 44°11' E 028°24'0 0.0
2017-Oct-18 02:01N 44°11' E 028°24'0 0.0
2017-Oct-18 01:30N 44°11' E 028°24'0 0.0
2017-Oct-18 01:01N 44°11' E 028°24'0 0.0
2017-Oct-18 00:31N 44°11' E 028°24'0 0.0
2017-Oct-18 00:01N 44°11' E 028°24'0 0.0
2017-Oct-17 23:31N 44°11' E 028°24'0 0.0
2017-Oct-17 23:01N 44°11' E 028°24'0 0.0
2017-Oct-17 22:30N 44°11' E 028°24'0 0.0
2017-Oct-17 22:01N 44°11' E 028°24'0 0.0
2017-Oct-17 21:30N 44°11' E 028°24'0 0.0
2017-Oct-17 21:01N 44°11' E 028°24'0 0.0
2017-Oct-17 20:30N 44°11' E 028°24'0 0.0
2017-Oct-17 20:01N 44°11' E 028°24'0 0.0
2017-Oct-17 19:31N 44°11' E 028°24'0 0.0
2017-Oct-17 19:01N 44°11' E 028°24'0 0.0
2017-Oct-17 18:31N 44°11' E 028°24'0 0.0
2017-Oct-17 18:01N 44°11' E 028°24'0 0.0
2017-Oct-17 17:30N 44°11' E 028°24'0 0.2
2017-Oct-17 17:01N 44°11' E 028°24'2 3.1
2017-Oct-17 16:19N 44°09' E 028°26'5 4.3
2017-Oct-17 15:13N 44°06' E 028°30'1 4.9
2017-Oct-17 15:00N 44°06' E 028°32'2 4.7
2017-Oct-17 14:31N 44°06' E 028°35'2 3.1
2017-Oct-17 14:01N 44°06' E 028°37'0 0.7
2017-Oct-17 13:31N 44°06' E 028°38'1 2.6
2017-Oct-17 13:01N 44°07' E 028°39'0 0.0
2017-Oct-17 12:30N 44°07' E 028°39'0 0.6
2017-Oct-17 11:58N 44°07' E 028°39'0 0.0
2017-Oct-17 11:28N 44°07' E 028°39'0 0.0
2017-Oct-17 10:58N 44°07' E 028°39'0 0.0
2017-Oct-17 10:28N 44°07' E 028°39'0 0.0
2017-Oct-17 09:58N 44°07' E 028°39'0 0.0
2017-Oct-17 09:28N 44°07' E 028°39'0 0.0
2017-Oct-17 08:58N 44°07' E 028°39'0 0.0
2017-Oct-17 08:28N 44°07' E 028°39'0 0.0
2017-Oct-17 07:58N 44°07' E 028°39'0 0.0
2017-Oct-17 07:28N 44°07' E 028°39'0 0.0
2017-Oct-17 06:58N 44°07' E 028°39'0 0.0
2017-Oct-17 06:28N 44°07' E 028°39'0 0.0
2017-Oct-17 05:58N 44°07' E 028°39'0 0.0
2017-Oct-17 05:28N 44°07' E 028°39'0 0.0
2017-Oct-17 04:58N 44°07' E 028°39'0 0.0
2017-Oct-17 04:28N 44°07' E 028°39'0 0.0
2017-Oct-17 03:58N 44°07' E 028°39'0 0.0
2017-Oct-17 03:16N 44°07' E 028°39'0 0.0
2017-Oct-17 02:58N 44°07' E 028°39'0 0.0
2017-Oct-17 02:28N 44°07' E 028°39'0 0.0
2017-Oct-17 01:55N 44°07' E 028°39'0 0.0
2017-Oct-17 01:25N 44°07' E 028°39'0 0.0
2017-Oct-17 00:58N 44°07' E 028°39'0 0.0
2017-Oct-17 00:28N 44°07' E 028°39'0 0.0
2017-Oct-16 23:58N 44°07' E 028°39'0 0.0
2017-Oct-16 23:25N 44°07' E 028°39'0 0.0
2017-Oct-16 22:58N 44°07' E 028°39'0 0.0
2017-Oct-16 22:28N 44°07' E 028°39'0 0.0
2017-Oct-16 21:58N 44°07' E 028°39'0 0.0
2017-Oct-16 21:28N 44°07' E 028°39'0 0.0
2017-Oct-16 20:58N 44°07' E 028°39'0 0.0
2017-Oct-16 20:28N 44°07' E 028°39'0 0.0
2017-Oct-16 19:58N 44°07' E 028°39'0 0.0
2017-Oct-16 19:22N 44°07' E 028°39'0 0.0
2017-Oct-16 18:58N 44°07' E 028°39'0 0.0
2017-Oct-16 18:28N 44°07' E 028°39'0 0.0
2017-Oct-16 17:58N 44°07' E 028°39'0 0.0
2017-Oct-16 17:28N 44°07' E 028°39'0 0.0
2017-Oct-16 16:58N 44°07' E 028°39'0 0.0
2017-Oct-16 16:28N 44°07' E 028°39'0 0.0
2017-Oct-16 15:58N 44°07' E 028°39'0 0.0
2017-Oct-16 15:28N 44°07' E 028°39'0 0.0
2017-Oct-16 14:58N 44°07' E 028°39'0 0.0
2017-Oct-16 14:28N 44°07' E 028°39'0 0.0
2017-Oct-16 13:28N 44°07' E 028°39'0 0.0
2017-Oct-16 12:58N 44°07' E 028°39'0 0.0
2017-Oct-16 12:25N 44°07' E 028°39'0 0.0
2017-Oct-16 11:58N 44°07' E 028°39'0 0.0
2017-Oct-16 11:28N 44°07' E 028°39'0 0.0
2017-Oct-16 10:58N 44°07' E 028°39'0 0.0
2017-Oct-16 10:28N 44°07' E 028°39'0 0.0
2017-Oct-16 09:58N 44°07' E 028°39'0 0.0
2017-Oct-16 09:28N 44°07' E 028°39'0 0.0
2017-Oct-16 08:58N 44°07' E 028°39'0 0.0
2017-Oct-16 08:28N 44°07' E 028°39'0 0.0
2017-Oct-16 07:58N 44°07' E 028°39'0 0.0
2017-Oct-16 07:28N 44°07' E 028°39'0 0.0
2017-Oct-16 06:58N 44°07' E 028°39'0 0.0
2017-Oct-16 06:28N 44°07' E 028°39'0 0.0
2017-Oct-16 05:58N 44°07' E 028°39'0 0.0
2017-Oct-16 05:28N 44°07' E 028°39'0 0.0
2017-Oct-16 04:58N 44°07' E 028°39'0 0.0
2017-Oct-16 04:25N 44°07' E 028°39'0 0.0
2017-Oct-16 03:58N 44°07' E 028°39'0 0.0
2017-Oct-16 03:28N 44°07' E 028°39'0 0.0
2017-Oct-16 02:58N 44°07' E 028°39'0 0.0
2017-Oct-16 02:28N 44°07' E 028°39'0 0.0
2017-Oct-16 01:58N 44°07' E 028°39'0 0.0
2017-Oct-16 01:28N 44°07' E 028°39'0 0.0
2017-Oct-16 00:58N 44°07' E 028°39'0 0.0
2017-Oct-16 00:28N 44°07' E 028°39'0 0.0
2017-Oct-15 23:58N 44°07' E 028°39'0 0.0
2017-Oct-15 23:28N 44°07' E 028°39'0 0.0
2017-Oct-15 22:52N 44°07' E 028°39'0 0.0
2017-Oct-15 22:28N 44°07' E 028°39'0 0.0
2017-Oct-15 21:58N 44°07' E 028°39'0 0.0
2017-Oct-15 21:28N 44°07' E 028°39'0 0.0
2017-Oct-15 20:58N 44°07' E 028°39'0 0.0
2017-Oct-15 20:28N 44°07' E 028°39'0 0.0
2017-Oct-15 19:58N 44°07' E 028°39'0 0.0
2017-Oct-15 19:28N 44°07' E 028°39'0 0.0
2017-Oct-15 18:58N 44°07' E 028°39'0 0.0
2017-Oct-15 18:28N 44°07' E 028°39'0 0.0
2017-Oct-15 17:58N 44°07' E 028°39'0 0.0
2017-Oct-15 17:28N 44°07' E 028°39'0 0.0
2017-Oct-15 16:58N 44°07' E 028°39'0 0.0
2017-Oct-15 16:28N 44°07' E 028°39'0 0.0
2017-Oct-15 15:58N 44°07' E 028°39'0 0.0
2017-Oct-15 15:28N 44°07' E 028°39'0 0.0
2017-Oct-15 14:58N 44°07' E 028°39'0 0.0
2017-Oct-15 13:58N 44°07' E 028°39'0 0.0
2017-Oct-15 13:28N 44°07' E 028°39'0 0.0
2017-Oct-15 12:58N 44°07' E 028°39'0 0.0
2017-Oct-15 12:28N 44°07' E 028°39'0 0.0
2017-Oct-15 12:01N 44°07' E 028°39'0 0.0
2017-Oct-15 11:30N 44°07' E 028°39'0 0.0
2017-Oct-15 11:00N 44°07' E 028°39'0 0.0
2017-Oct-15 10:30N 44°07' E 028°39'0 0.0
2017-Oct-15 10:00N 44°07' E 028°39'0 0.4
2017-Oct-15 09:30N 44°07' E 028°39'2 4.6
2017-Oct-15 09:00N 44°09' E 028°40'1 2.3
2017-Oct-15 08:31N 44°09' E 028°39'0 0.0
2017-Oct-15 08:00N 44°09' E 028°39'0 0.0
2017-Oct-15 07:30N 44°09' E 028°39'0 0.0
2017-Oct-15 07:00N 44°09' E 028°39'0 0.0
2017-Oct-15 06:31N 44°09' E 028°39'0 0.0
2017-Oct-15 06:00N 44°09' E 028°39'0 0.0
2017-Oct-15 05:30N 44°09' E 028°39'0 0.0
2017-Oct-15 05:00N 44°09' E 028°39'0 0.0
2017-Oct-15 04:30N 44°09' E 028°39'0 0.0
2017-Oct-15 04:00N 44°09' E 028°39'0 0.0
2017-Oct-15 03:31N 44°09' E 028°39'0 0.0
2017-Oct-15 03:00N 44°09' E 028°39'0 0.0
2017-Oct-15 02:31N 44°09' E 028°39'0 0.0
2017-Oct-15 02:00N 44°09' E 028°39'0 0.0
2017-Oct-15 01:30N 44°09' E 028°39'0 0.0
2017-Oct-15 01:00N 44°09' E 028°39'0 0.0
2017-Oct-15 00:30N 44°09' E 028°39'0 0.0
2017-Oct-15 00:00N 44°09' E 028°39'0 0.0
2017-Oct-14 23:30N 44°09' E 028°39'0 0.0
2017-Oct-14 23:00N 44°09' E 028°39'1 1.3
2017-Oct-14 22:31N 44°09' E 028°40'1 2.1
2017-Oct-14 22:00N 44°08' E 028°39'1 2.7
2017-Oct-14 21:30N 44°07' E 028°39'0 0.1
2017-Oct-14 21:00N 44°07' E 028°39'0 0.0
2017-Oct-14 20:30N 44°07' E 028°39'0 0.0
2017-Oct-14 20:01N 44°07' E 028°39'0 0.0
2017-Oct-14 19:30N 44°07' E 028°39'0 0.0
2017-Oct-14 19:00N 44°07' E 028°39'0 0.0
2017-Oct-14 18:30N 44°07' E 028°39'0 0.0
2017-Oct-14 18:00N 44°07' E 028°39'0 0.0
2017-Oct-14 17:30N 44°07' E 028°39'0 0.0
2017-Oct-14 17:00N 44°07' E 028°39'0 0.0
2017-Oct-14 16:31N 44°07' E 028°39'0 0.0
2017-Oct-14 16:00N 44°07' E 028°39'0 0.0
2017-Oct-14 15:30N 44°07' E 028°39'0 0.0
2017-Oct-14 15:00N 44°07' E 028°39'0 0.0
2017-Oct-14 14:30N 44°07' E 028°39'0 0.0
2017-Oct-14 14:00N 44°07' E 028°39'0 0.0
2017-Oct-14 13:31N 44°07' E 028°39'0 0.0
2017-Oct-14 13:00N 44°07' E 028°39'0 0.0
2017-Oct-14 12:30N 44°07' E 028°39'0 0.0
2017-Oct-14 12:00N 44°07' E 028°39'0 0.0
2017-Oct-14 11:30N 44°07' E 028°39'0 0.0
2017-Oct-14 11:00N 44°07' E 028°39'0 0.0
2017-Oct-14 10:30N 44°07' E 028°39'0 0.0
2017-Oct-14 10:00N 44°07' E 028°39'0 0.0
2017-Oct-14 09:30N 44°07' E 028°39'0 0.0
2017-Oct-14 09:01N 44°07' E 028°39'0 0.0
2017-Oct-14 08:30N 44°07' E 028°39'0 0.0
2017-Oct-14 08:01N 44°07' E 028°39'0 0.0
2017-Oct-14 07:31N 44°07' E 028°39'0 0.0
2017-Oct-14 07:01N 44°07' E 028°39'0 0.0
2017-Oct-14 06:31N 44°07' E 028°39'0 0.0
2017-Oct-14 06:00N 44°07' E 028°39'0 0.0
2017-Oct-14 05:30N 44°07' E 028°39'0 0.0
2017-Oct-14 05:00N 44°07' E 028°39'0 0.0
2017-Oct-14 04:30N 44°07' E 028°39'0 0.0
2017-Oct-14 04:00N 44°07' E 028°39'0 0.0
2017-Oct-14 03:31N 44°07' E 028°39'0 0.0
2017-Oct-14 03:00N 44°07' E 028°39'0 0.0
2017-Oct-14 02:30N 44°07' E 028°39'0 0.0
2017-Oct-14 02:00N 44°07' E 028°39'0 0.0
2017-Oct-14 01:30N 44°07' E 028°39'0 0.0
2017-Oct-14 01:01N 44°07' E 028°39'0 0.0
2017-Oct-14 00:30N 44°07' E 028°39'0 0.0
2017-Oct-14 00:00N 44°07' E 028°39'0 0.0
2017-Oct-13 23:30N 44°07' E 028°39'0 0.0
2017-Oct-13 23:00N 44°07' E 028°39'0 0.0
2017-Oct-13 22:30N 44°07' E 028°39'0 0.0
2017-Oct-13 22:00N 44°07' E 028°39'0 0.0
2017-Oct-13 21:30N 44°07' E 028°39'0 0.0
2017-Oct-13 21:01N 44°07' E 028°39'0 0.0
2017-Oct-13 20:30N 44°07' E 028°39'0 0.0
2017-Oct-13 20:01N 44°07' E 028°39'0 0.0
2017-Oct-13 19:30N 44°07' E 028°39'0 0.0
2017-Oct-13 19:01N 44°07' E 028°39'0 0.0
2017-Oct-13 18:30N 44°07' E 028°39'0 0.0
2017-Oct-13 18:00N 44°07' E 028°39'0 0.0
2017-Oct-13 17:30N 44°07' E 028°39'0 0.0
2017-Oct-13 17:00N 44°07' E 028°39'0 0.0
2017-Oct-13 16:30N 44°07' E 028°39'0 0.0
2017-Oct-13 16:01N 44°07' E 028°39'0 0.0
2017-Oct-13 15:30N 44°07' E 028°39'0 0.0
2017-Oct-13 15:00N 44°07' E 028°39'0 0.0
2017-Oct-13 14:30N 44°07' E 028°39'0 0.0
2017-Oct-13 14:00N 44°07' E 028°39'0 0.0
2017-Oct-13 13:30N 44°07' E 028°39'0 0.0
2017-Oct-13 13:00N 44°07' E 028°39'0 0.0
2017-Oct-13 12:31N 44°07' E 028°39'0 0.0
2017-Oct-13 12:00N 44°07' E 028°39'0 0.0
2017-Oct-13 11:30N 44°07' E 028°39'0 0.0
2017-Oct-13 11:00N 44°07' E 028°39'0 0.0
2017-Oct-13 10:30N 44°07' E 028°39'0 0.0
2017-Oct-13 10:00N 44°07' E 028°39'0 0.0
2017-Oct-13 09:31N 44°07' E 028°39'0 0.0
2017-Oct-13 09:00N 44°07' E 028°39'0 0.0
2017-Oct-13 08:31N 44°07' E 028°39'0 0.0
2017-Oct-13 08:00N 44°07' E 028°39'0 0.1
2017-Oct-13 07:31N 44°07' E 028°39'0 0.0
2017-Oct-13 07:00N 44°07' E 028°39'0 0.0
2017-Oct-13 06:30N 44°07' E 028°39'0 0.0
2017-Oct-13 06:00N 44°07' E 028°39'0 0.0
2017-Oct-13 05:30N 44°07' E 028°39'0 0.0
2017-Oct-13 05:00N 44°07' E 028°39'0 0.0
2017-Oct-13 04:30N 44°07' E 028°39'0 0.0
2017-Oct-13 04:00N 44°07' E 028°39'0 0.0
2017-Oct-13 03:30N 44°07' E 028°39'0 0.0
2017-Oct-13 03:00N 44°07' E 028°39'0 0.0
2017-Oct-13 02:30N 44°07' E 028°39'0 0.0
2017-Oct-13 02:01N 44°07' E 028°39'0 0.0
2017-Oct-13 01:30N 44°07' E 028°39'0 0.0
2017-Oct-13 01:00N 44°07' E 028°39'0 0.0
2017-Oct-13 00:30N 44°07' E 028°39'0 0.0
2017-Oct-13 00:00N 44°07' E 028°39'0 0.0
2017-Oct-12 23:30N 44°07' E 028°39'0 0.0
2017-Oct-12 23:00N 44°07' E 028°39'0 0.0
2017-Oct-12 22:30N 44°07' E 028°39'0 0.0
2017-Oct-12 22:00N 44°07' E 028°39'0 0.0
2017-Oct-12 21:30N 44°07' E 028°39'0 0.0
2017-Oct-12 21:00N 44°07' E 028°39'0 0.0
2017-Oct-12 20:31N 44°07' E 028°39'0 0.0
2017-Oct-12 20:01N 44°07' E 028°39'0 0.0
2017-Oct-12 19:30N 44°07' E 028°39'0 0.0
2017-Oct-12 19:01N 44°07' E 028°39'0 0.0
2017-Oct-12 18:31N 44°07' E 028°39'0 0.0
2017-Oct-12 18:00N 44°07' E 028°39'0 0.0
2017-Oct-12 17:30N 44°07' E 028°39'0 0.0
2017-Oct-12 17:00N 44°07' E 028°39'0 0.0
2017-Oct-12 16:31N 44°07' E 028°39'0 0.0
2017-Oct-12 16:00N 44°07' E 028°39'0 0.0
2017-Oct-12 15:31N 44°07' E 028°39'0 0.0
2017-Oct-12 15:00N 44°07' E 028°39'0 0.0
2017-Oct-12 14:31N 44°07' E 028°39'0 0.0
2017-Oct-12 14:00N 44°07' E 028°39'0 0.0
2017-Oct-12 13:30N 44°07' E 028°39'0 0.0
2017-Oct-12 13:00N 44°07' E 028°39'0 0.0
2017-Oct-12 12:30N 44°07' E 028°39'0 0.0
2017-Oct-12 12:00N 44°07' E 028°39'0 0.0
2017-Oct-12 11:31N 44°07' E 028°39'0 0.0
2017-Oct-12 11:00N 44°07' E 028°39'0 0.0
2017-Oct-12 10:31N 44°07' E 028°39'0 0.0
2017-Oct-12 10:00N 44°07' E 028°39'0 0.0
2017-Oct-12 09:30N 44°07' E 028°39'0 0.0
2017-Oct-12 09:00N 44°07' E 028°39'0 0.0
2017-Oct-12 08:30N 44°07' E 028°39'0 0.0
2017-Oct-12 08:00N 44°07' E 028°39'0 0.0
2017-Oct-12 07:31N 44°07' E 028°39'0 0.0
2017-Oct-12 07:00N 44°07' E 028°39'0 0.0
2017-Oct-12 06:30N 44°07' E 028°39'0 0.0
2017-Oct-12 06:01N 44°07' E 028°39'0 0.0
2017-Oct-12 05:30N 44°07' E 028°39'0 0.0
2017-Oct-12 05:00N 44°07' E 028°39'0 0.0
2017-Oct-12 04:30N 44°07' E 028°39'0 0.0
2017-Oct-12 04:00N 44°07' E 028°39'0 0.0
2017-Oct-12 03:30N 44°07' E 028°39'0 0.0
2017-Oct-12 03:00N 44°07' E 028°39'0 0.0
2017-Oct-12 02:30N 44°07' E 028°39'0 0.0
2017-Oct-12 02:01N 44°07' E 028°39'0 0.0
2017-Oct-12 01:30N 44°07' E 028°39'0 0.0
2017-Oct-12 01:00N 44°07' E 028°39'0 0.0
2017-Oct-12 00:30N 44°07' E 028°39'0 0.0
2017-Oct-12 00:01N 44°07' E 028°39'0 0.0
2017-Oct-11 23:30N 44°07' E 028°39'0 0.0
2017-Oct-11 23:01N 44°07' E 028°39'0 0.0
2017-Oct-11 22:30N 44°07' E 028°39'0 0.0
2017-Oct-11 22:01N 44°07' E 028°39'0 0.0
2017-Oct-11 21:31N 44°07' E 028°39'0 0.0
2017-Oct-11 21:00N 44°07' E 028°39'0 0.0
2017-Oct-11 20:30N 44°07' E 028°39'0 0.0
2017-Oct-11 20:01N 44°07' E 028°39'0 0.0
2017-Oct-11 19:30N 44°07' E 028°39'0 0.0
2017-Oct-11 19:00N 44°07' E 028°39'0 0.0
2017-Oct-11 18:30N 44°07' E 028°39'0 0.0
2017-Oct-11 18:00N 44°07' E 028°39'0 0.0
2017-Oct-11 17:31N 44°07' E 028°39'0 0.0
2017-Oct-11 17:00N 44°07' E 028°39'0 0.0
2017-Oct-11 00:00N 44°07' E 028°39'0 0.0
2017-Oct-10 23:30N 44°07' E 028°39'0 0.0
2017-Oct-10 23:00N 44°07' E 028°39'0 0.0
2017-Oct-10 22:31N 44°07' E 028°39'0 0.0
2017-Oct-10 22:01N 44°07' E 028°39'0 0.0
2017-Oct-10 21:30N 44°07' E 028°39'0 0.0
2017-Oct-10 21:01N 44°07' E 028°39'0 0.0
2017-Oct-10 20:30N 44°07' E 028°39'0 0.0
2017-Oct-10 20:01N 44°07' E 028°39'0 0.0
2017-Oct-10 19:30N 44°07' E 028°39'0 0.0
2017-Oct-10 19:00N 44°07' E 028°39'0 0.0
2017-Oct-10 18:30N 44°07' E 028°39'0 0.0
2017-Oct-10 18:00N 44°07' E 028°39'0 0.0
2017-Oct-10 17:31N 44°07' E 028°39'0 0.0
2017-Oct-10 17:00N 44°07' E 028°39'0 0.0
2017-Oct-10 16:31N 44°07' E 028°39'0 0.0
2017-Oct-10 16:01N 44°07' E 028°39'0 0.0
2017-Oct-10 15:31N 44°07' E 028°39'0 0.0
2017-Oct-10 15:01N 44°07' E 028°39'0 0.0
2017-Oct-10 14:00N 44°07' E 028°39'0 0.0
2017-Oct-10 13:31N 44°07' E 028°39'0 0.0
2017-Oct-10 13:01N 44°07' E 028°39'0 0.0
2017-Oct-10 12:30N 44°07' E 028°39'0 0.0
2017-Oct-10 12:00N 44°07' E 028°39'0 0.0
2017-Oct-10 11:30N 44°07' E 028°39'0 0.0
2017-Oct-10 11:00N 44°07' E 028°39'0 0.0
2017-Oct-10 10:30N 44°07' E 028°39'0 0.0
2017-Oct-10 10:00N 44°07' E 028°39'0 0.0
2017-Oct-10 09:30N 44°07' E 028°39'0 0.0
2017-Oct-10 09:00N 44°07' E 028°39'0 0.0
2017-Oct-10 08:31N 44°07' E 028°39'0 0.0
2017-Oct-10 08:00N 44°07' E 028°39'0 0.0
2017-Oct-10 07:30N 44°07' E 028°39'0 0.0
2017-Oct-10 07:00N 44°07' E 028°39'0 0.0
2017-Oct-10 06:31N 44°07' E 028°39'0 0.0
2017-Oct-10 06:00N 44°07' E 028°39'0 0.0
2017-Oct-10 05:30N 44°07' E 028°39'0 0.0
2017-Oct-10 05:01N 44°07' E 028°39'0 0.0
2017-Oct-10 04:30N 44°07' E 028°39'0 0.0
2017-Oct-10 04:00N 44°07' E 028°39'0 0.0
2017-Oct-10 03:30N 44°07' E 028°39'0 0.0
2017-Oct-10 03:01N 44°07' E 028°39'0 0.0
2017-Oct-10 02:30N 44°07' E 028°39'0 0.0
2017-Oct-10 02:00N 44°07' E 028°39'0 0.0
2017-Oct-10 01:30N 44°07' E 028°39'0 0.0
2017-Oct-10 01:00N 44°07' E 028°39'0 0.0
2017-Oct-10 00:30N 44°07' E 028°39'0 0.0
2017-Oct-10 00:01N 44°07' E 028°39'0 0.0
2017-Oct-09 23:31N 44°07' E 028°39'0 0.0
2017-Oct-09 23:01N 44°07' E 028°39'0 0.0
2017-Oct-09 22:30N 44°07' E 028°39'0 0.0
2017-Oct-09 22:01N 44°07' E 028°39'0 0.0
2017-Oct-09 21:30N 44°07' E 028°39'0 0.0
2017-Oct-09 21:00N 44°07' E 028°39'0 0.0
2017-Oct-09 20:30N 44°07' E 028°39'0 0.0
2017-Oct-09 20:00N 44°07' E 028°39'0 0.0
2017-Oct-09 19:30N 44°07' E 028°39'0 0.0
2017-Oct-09 19:00N 44°07' E 028°39'0 0.0
2017-Oct-09 18:30N 44°07' E 028°39'0 0.0
2017-Oct-09 18:01N 44°07' E 028°39'0 0.0
2017-Oct-09 17:30N 44°07' E 028°39'0 0.0
2017-Oct-09 17:00N 44°07' E 028°39'0 0.0
2017-Oct-09 16:31N 44°07' E 028°39'0 0.0
2017-Oct-09 16:01N 44°07' E 028°39'0 0.0
2017-Oct-09 15:30N 44°07' E 028°39'0 0.0
2017-Oct-09 15:00N 44°07' E 028°39'0 0.0
2017-Oct-09 14:31N 44°07' E 028°39'0 0.0
2017-Oct-09 14:01N 44°07' E 028°39'0 0.0
2017-Oct-09 13:31N 44°07' E 028°39'0 0.0
2017-Oct-09 13:00N 44°07' E 028°39'0 0.0
2017-Oct-09 12:31N 44°07' E 028°39'0 0.0
2017-Oct-09 12:00N 44°07' E 028°39'0 0.0
2017-Oct-09 11:30N 44°07' E 028°39'0 0.0
2017-Oct-09 11:00N 44°07' E 028°39'0 0.0
2017-Oct-09 10:31N 44°07' E 028°39'0 0.0
2017-Oct-09 10:00N 44°07' E 028°39'0 0.0
2017-Oct-09 09:30N 44°07' E 028°39'0 0.0
2017-Oct-09 09:01N 44°07' E 028°39'0 0.0
2017-Oct-09 08:30N 44°07' E 028°39'0 0.0
2017-Oct-09 08:00N 44°07' E 028°39'0 0.0
2017-Oct-09 07:30N 44°07' E 028°39'0 0.0
2017-Oct-09 07:00N 44°07' E 028°39'0 0.0
2017-Oct-09 06:31N 44°07' E 028°39'0 0.0
2017-Oct-09 06:01N 44°07' E 028°39'0 0.0
2017-Oct-09 05:31N 44°07' E 028°39'0 0.0
2017-Oct-09 05:01N 44°07' E 028°39'0 0.0
2017-Oct-09 04:30N 44°07' E 028°39'0 0.0
2017-Oct-09 04:00N 44°07' E 028°39'0 0.0
2017-Oct-09 03:31N 44°07' E 028°39'0 0.0
2017-Oct-09 03:01N 44°07' E 028°39'0 0.0
2017-Oct-09 02:30N 44°07' E 028°39'0 0.0
2017-Oct-09 02:00N 44°07' E 028°39'0 0.0
2017-Oct-09 01:31N 44°07' E 028°39'0 0.0
2017-Oct-09 01:00N 44°07' E 028°39'0 0.0
2017-Oct-09 00:30N 44°07' E 028°39'0 0.0
2017-Oct-09 00:00N 44°07' E 028°39'0 0.0
2017-Oct-08 23:30N 44°07' E 028°39'0 0.0
2017-Oct-08 23:00N 44°07' E 028°39'0 0.0
2017-Oct-08 22:30N 44°07' E 028°39'0 0.0
2017-Oct-08 22:01N 44°07' E 028°39'0 0.0
2017-Oct-08 21:30N 44°07' E 028°39'0 0.0
2017-Oct-08 21:00N 44°07' E 028°39'0 0.0
2017-Oct-08 20:31N 44°07' E 028°39'0 0.0
2017-Oct-08 20:00N 44°07' E 028°39'0 0.0
2017-Oct-08 19:31N 44°07' E 028°39'0 0.0
2017-Oct-08 19:00N 44°07' E 028°39'0 0.0
2017-Oct-08 18:30N 44°07' E 028°39'0 0.0
2017-Oct-08 18:01N 44°07' E 028°39'0 0.0
2017-Oct-08 17:30N 44°07' E 028°39'0 0.0
2017-Oct-08 17:00N 44°07' E 028°39'0 0.0
2017-Oct-08 16:30N 44°07' E 028°39'0 0.0
2017-Oct-08 16:01N 44°07' E 028°39'0 0.0
2017-Oct-08 15:31N 44°07' E 028°39'0 0.0
2017-Oct-08 15:00N 44°07' E 028°39'0 0.0
2017-Oct-08 14:31N 44°07' E 028°39'0 0.0
2017-Oct-08 14:00N 44°07' E 028°39'0 0.0
2017-Oct-08 13:30N 44°07' E 028°39'0 0.0
2017-Oct-08 13:00N 44°07' E 028°39'0 0.0
2017-Oct-08 12:30N 44°07' E 028°39'0 0.0
2017-Oct-08 12:00N 44°07' E 028°39'0 0.0
2017-Oct-08 11:30N 44°07' E 028°39'0 0.0
2017-Oct-08 11:00N 44°07' E 028°39'0 0.0
2017-Oct-08 10:30N 44°07' E 028°39'0 0.0
2017-Oct-08 10:01N 44°07' E 028°39'0 0.0
2017-Oct-08 09:30N 44°07' E 028°39'0 0.0
2017-Oct-08 09:01N 44°07' E 028°39'0 0.0
2017-Oct-08 08:31N 44°07' E 028°39'0 0.0
2017-Oct-08 08:00N 44°07' E 028°39'  

Dump ship's entire track history